Time;durP1;ratioP1;P1;durP2;ratioP2;P2;SDS_P1;SDS_P2;PMS_P1;PMS_P2;Temp;Humidity;BMP_temperature;BMP_pressure;BME280_temperature;BME280_humidity;BME280_pressure;Samples;Min_cycle;Max_cycle;Signal;HPM_P1;HPM_P2
2022/11/30 00:01:10;;;;;;;31.53;28.00;;;8.20;99.90;;;;;;5008900;28;20027;-78
2022/11/30 00:03:36;;;;;;;34.73;29.17;;;8.30;99.90;;;;;;4992182;28;20038;-78
2022/11/30 00:06:06;;;;;;;31.35;27.98;;;8.20;99.90;;;;;;4976255;28;20388;-78
2022/11/30 00:08:32;;;;;;;37.80;28.27;;;8.20;99.90;;;;;;4993063;28;20475;-78
2022/11/30 00:10:59;;;;;;;35.60;28.73;;;8.10;99.90;;;;;;4991320;28;20038;-78
2022/11/30 00:13:25;;;;;;;37.77;27.23;;;8.10;99.90;;;;;;5028355;28;20487;-79
2022/11/30 00:15:51;;;;;;;30.87;27.23;;;8.10;99.90;;;;;;4985208;28;20395;-78
2022/11/30 00:18:17;;;;;;;28.20;25.13;;;8.10;99.90;;;;;;5006975;28;20034;-78
2022/11/30 00:20:43;;;;;;;33.10;27.33;;;8.10;99.90;;;;;;4991398;28;20427;-79
2022/11/30 00:23:09;;;;;;;29.70;26.67;;;8.00;99.90;;;;;;4989937;28;20051;-78
2022/11/30 00:25:35;;;;;;;26.10;23.30;;;8.10;99.90;;;;;;5023836;28;20050;-78
2022/11/30 00:28:02;;;;;;;27.90;24.10;;;8.00;99.90;;;;;;5007514;28;20383;-79
2022/11/30 00:30:28;;;;;;;27.53;24.83;;;7.90;99.90;;;;;;4996218;28;20392;-78
2022/11/30 00:32:57;;;;;;;30.67;25.23;;;7.90;99.90;;;;;;5005866;28;20413;-79
2022/11/30 00:35:23;;;;;;;27.07;24.33;;;8.00;99.90;;;;;;4991471;28;20043;-79
2022/11/30 00:37:49;;;;;;;26.47;23.80;;;8.00;99.90;;;;;;5007267;28;20664;-79
2022/11/30 00:40:15;;;;;;;28.20;25.37;;;8.00;99.90;;;;;;5006740;28;20115;-78
2022/11/30 00:42:41;;;;;;;26.77;24.00;;;8.00;99.90;;;;;;4987189;28;20046;-79
2022/11/30 00:45:08;;;;;;;26.93;23.73;;;7.90;99.90;;;;;;4968995;28;20050;-78
2022/11/30 00:47:34;;;;;;;28.17;25.17;;;8.00;99.90;;;;;;4990481;28;20042;-78
2022/11/30 00:50:02;;;;;;;25.37;22.80;;;8.00;99.90;;;;;;5023753;28;20041;-79
2022/11/30 00:52:29;;;;;;;27.40;24.83;;;8.10;99.90;;;;;;5005493;28;20054;-78
2022/11/30 00:54:55;;;;;;;25.80;23.27;;;8.10;99.90;;;;;;5005637;28;20038;-78
2022/11/30 00:57:21;;;;;;;28.55;24.02;;;8.10;99.90;;;;;;4975224;28;20069;-79
2022/11/30 00:59:47;;;;;;;26.20;23.60;;;8.30;99.90;;;;;;4994278;28;20027;-79
2022/11/30 01:02:14;;;;;;;25.17;22.73;;;8.30;99.90;;;;;;4990752;28;20073;-79
2022/11/30 01:04:40;;;;;;;25.17;22.23;;;8.30;99.90;;;;;;5022738;28;20037;-79
2022/11/30 01:07:06;;;;;;;23.52;21.23;;;8.40;99.90;;;;;;4992348;28;20380;-79
2022/11/30 01:09:32;;;;;;;23.97;21.63;;;8.50;99.90;;;;;;5006479;28;20026;-78
2022/11/30 01:11:58;;;;;;;23.70;21.27;;;8.60;99.90;;;;;;4989541;28;20411;-79
2022/11/30 01:14:25;;;;;;;25.63;21.90;;;8.70;99.90;;;;;;4987366;28;20030;-78
2022/11/30 01:16:51;;;;;;;21.73;19.77;;;8.70;99.90;;;;;;4991136;28;20065;-79
2022/11/30 01:19:17;;;;;;;23.55;21.17;;;8.70;99.90;;;;;;4991278;28;20026;-78
2022/11/30 01:21:43;;;;;;;21.85;19.90;;;8.80;99.90;;;;;;4990202;28;20061;-79
2022/11/30 01:24:09;;;;;;;19.87;17.93;;;8.70;99.90;;;;;;5007131;28;20102;-78
2022/11/30 01:26:35;;;;;;;18.23;16.63;;;8.70;99.90;;;;;;4990474;28;20057;-78
2022/11/30 01:29:01;;;;;;;20.63;18.73;;;8.70;99.90;;;;;;4990870;28;20454;-79
2022/11/30 01:31:28;;;;;;;21.35;18.75;;;8.80;99.90;;;;;;4990078;28;20038;-79
2022/11/30 01:33:54;;;;;;;18.93;17.13;;;8.90;99.90;;;;;;4997426;28;20035;-79
2022/11/30 01:36:22;;;;;;;20.60;17.93;;;8.90;99.90;;;;;;5001909;28;20376;-79
2022/11/30 01:38:50;;;;;;;20.40;18.27;;;8.90;99.90;;;;;;5022768;28;20030;-78
2022/11/30 01:41:20;;;;;;;19.97;17.93;;;8.80;99.90;;;;;;5021362;28;20030;-79
2022/11/30 01:44:16;;;;;;;19.27;17.30;;;8.80;99.90;;;;;;5007434;28;20038;-78
2022/11/30 01:46:50;;;;;;;19.60;17.63;;;8.80;99.90;;;;;;4985345;28;20042;-79
2022/11/30 01:49:19;;;;;;;19.05;17.35;;;8.80;99.90;;;;;;4966900;28;20034;-79
2022/11/30 01:51:50;;;;;;;19.73;17.85;;;8.60;99.90;;;;;;4973626;28;20057;-79
2022/11/30 01:54:22;;;;;;;19.00;17.00;;;8.60;99.90;;;;;;4976613;28;20045;-78
2022/11/30 01:56:59;;;;;;;19.83;18.08;;;8.60;99.90;;;;;;4993053;28;20435;-78
2022/11/30 01:59:25;;;;;;;20.90;18.70;;;8.50;99.90;;;;;;4992483;28;20039;-78
2022/11/30 02:01:51;;;;;;;20.55;18.65;;;8.60;99.90;;;;;;4974631;28;20041;-78
2022/11/30 02:04:24;;;;;;;20.75;18.63;;;8.80;99.90;;;;;;4975048;28;20045;-78
2022/11/30 02:06:50;;;;;;;20.20;18.30;;;8.80;99.90;;;;;;4991458;28;20577;-79
2022/11/30 02:09:17;;;;;;;18.97;16.97;;;8.80;99.90;;;;;;4976550;28;20042;-79
2022/11/30 02:11:43;;;;;;;19.87;18.17;;;8.80;99.90;;;;;;4970828;28;20039;-78
2022/11/30 02:14:27;;;;;;;19.67;17.67;;;8.80;99.90;;;;;;4988856;28;20050;-79
2022/11/30 02:17:14;;;;;;;19.48;17.67;;;8.90;99.90;;;;;;4981175;28;20039;-79
2022/11/30 02:20:14;;;;;;;19.60;17.67;;;9.00;99.90;;;;;;4981241;28;20034;-78
2022/11/30 02:23:08;;;;;;;19.33;17.55;;;8.90;99.90;;;;;;4992493;28;20047;-79
2022/11/30 02:25:52;;;;;;;20.38;18.35;;;8.90;99.90;;;;;;4993564;28;20042;-78
2022/11/30 02:28:37;;;;;;;20.42;18.35;;;8.90;99.90;;;;;;4993750;28;20032;-79
2022/11/30 02:31:03;;;;;;;20.67;18.77;;;8.90;99.90;;;;;;4993039;28;20049;-79
2022/11/30 02:33:30;;;;;;;19.67;17.67;;;8.80;99.90;;;;;;5007918;28;20492;-78
2022/11/30 02:35:56;;;;;;;21.48;19.33;;;8.80;99.90;;;;;;5007324;28;20068;-79
2022/11/30 02:38:23;;;;;;;21.50;19.27;;;8.80;99.90;;;;;;5010451;28;20049;-79
2022/11/30 02:40:49;;;;;;;20.77;18.88;;;8.80;99.90;;;;;;4984746;28;20034;-79
2022/11/30 02:43:15;;;;;;;21.45;19.42;;;8.80;99.90;;;;;;5008135;28;20034;-78
2022/11/30 02:46:05;;;;;;;21.77;19.80;;;8.70;99.90;;;;;;5008272;28;20039;-79
2022/11/30 02:48:39;;;;;;;22.20;20.23;;;8.50;99.90;;;;;;5024888;28;20026;-78
2022/11/30 02:51:05;;;;;;;23.42;20.58;;;8.50;99.90;;;;;;5009245;28;20034;-78
2022/11/30 02:53:31;;;;;;;21.55;19.40;;;8.40;99.90;;;;;;4986596;28;20126;-79
2022/11/30 02:55:57;;;;;;;22.30;20.10;;;8.60;99.90;;;;;;4958757;28;20042;-79
2022/11/30 02:58:23;;;;;;;22.38;19.20;;;8.50;99.90;;;;;;5004892;28;20050;-78
2022/11/30 03:00:49;;;;;;;21.98;19.77;;;8.70;99.90;;;;;;4992090;28;20399;-79
2022/11/30 03:03:15;;;;;;;21.17;19.23;;;8.70;99.90;;;;;;4985447;28;20046;-79
2022/11/30 03:05:41;;;;;;;22.23;19.90;;;8.60;99.90;;;;;;4987143;28;20041;-78
2022/11/30 03:08:08;;;;;;;21.35;19.40;;;8.60;99.90;;;;;;4986743;28;20035;-79
2022/11/30 03:10:34;;;;;;;20.30;18.35;;;8.50;99.90;;;;;;4988202;28;20030;-78
2022/11/30 03:13:00;;;;;;;20.10;18.20;;;8.30;99.90;;;;;;4982105;28;20045;-79
2022/11/30 03:15:26;;;;;;;22.03;20.13;;;8.30;99.90;;;;;;4991287;28;20038;-78
2022/11/30 03:17:52;;;;;;;21.80;19.53;;;8.50;99.90;;;;;;5007310;28;20395;-79
2022/11/30 03:20:18;;;;;;;21.98;19.95;;;8.50;99.90;;;;;;4991430;28;20035;-79
2022/11/30 03:22:44;;;;;;;22.83;20.60;;;8.40;99.90;;;;;;5021211;28;20929;-79
2022/11/30 03:25:10;;;;;;;22.37;20.23;;;8.40;99.90;;;;;;4989295;28;20110;-78
2022/11/30 03:27:36;;;;;;;21.97;19.97;;;8.30;99.90;;;;;;4958557;28;20042;-79
2022/11/30 03:30:03;;;;;;;22.30;20.50;;;8.20;99.90;;;;;;5020955;28;20034;-78
2022/11/30 03:32:29;;;;;;;22.90;20.73;;;8.20;99.90;;;;;;5022433;28;20038;-79
2022/11/30 03:34:56;;;;;;;23.83;21.50;;;8.20;99.90;;;;;;5006869;28;20069;-79
2022/11/30 03:37:22;;;;;;;23.95;21.75;;;8.20;99.90;;;;;;4988743;28;20053;-78
2022/11/30 03:39:48;;;;;;;22.23;20.33;;;8.40;99.90;;;;;;5007972;28;20030;-79
2022/11/30 03:42:14;;;;;;;23.67;21.60;;;8.30;99.90;;;;;;5005253;28;20018;-79
2022/11/30 03:44:40;;;;;;;22.17;20.13;;;8.30;99.90;;;;;;4991280;28;20037;-79
2022/11/30 03:47:06;;;;;;;22.63;19.95;;;8.40;99.90;;;;;;4992172;28;20045;-78
2022/11/30 03:49:32;;;;;;;22.03;20.17;;;8.30;99.90;;;;;;4984194;28;20098;-78
2022/11/30 03:51:58;;;;;;;21.70;19.80;;;8.40;99.90;;;;;;5021473;28;20491;-78
2022/11/30 03:54:24;;;;;;;22.17;20.17;;;8.40;99.90;;;;;;5012375;28;20037;-78
2022/11/30 03:56:50;;;;;;;22.03;20.23;;;8.40;99.90;;;;;;4995009;28;20463;-78
2022/11/30 03:59:16;;;;;;;23.50;21.30;;;8.40;99.90;;;;;;4992522;28;20045;-78
2022/11/30 04:01:42;;;;;;;24.20;22.20;;;8.40;99.90;;;;;;4992370;28;20057;-78
2022/11/30 04:04:10;;;;;;;24.13;21.92;;;8.40;99.90;;;;;;4996385;28;20056;-78
2022/11/30 04:06:36;;;;;;;22.03;20.03;;;8.40;99.90;;;;;;5012316;28;20486;-78
2022/11/30 04:09:03;;;;;;;22.00;19.90;;;8.30;99.90;;;;;;4994395;28;20034;-79
2022/11/30 04:11:29;;;;;;;22.13;20.13;;;8.20;99.90;;;;;;4992183;28;20043;-78
2022/11/30 04:13:55;;;;;;;21.77;19.67;;;8.10;99.90;;;;;;5008908;28;20030;-78
2022/11/30 04:16:21;;;;;;;22.33;20.33;;;8.20;99.90;;;;;;4991689;28;20030;-78
2022/11/30 04:18:47;;;;;;;22.40;20.50;;;8.30;99.90;;;;;;4992356;28;20063;-79
2022/11/30 04:21:13;;;;;;;21.83;19.80;;;8.20;99.90;;;;;;5005252;28;20395;-78
2022/11/30 04:23:40;;;;;;;21.80;19.57;;;8.20;99.90;;;;;;5012046;28;20029;-78
2022/11/30 04:26:07;;;;;;;21.73;19.47;;;8.20;99.90;;;;;;4995453;28;20513;-78
2022/11/30 04:28:33;;;;;;;22.93;20.93;;;8.20;99.90;;;;;;5013242;28;20033;-78
2022/11/30 04:31:00;;;;;;;22.00;19.80;;;8.20;99.90;;;;;;4993238;28;20042;-78
2022/11/30 04:33:29;;;;;;;22.10;19.87;;;8.30;99.90;;;;;;4991791;28;20393;-78
2022/11/30 04:35:56;;;;;;;22.53;20.10;;;8.20;99.90;;;;;;5007521;28;20475;-78
2022/11/30 04:38:23;;;;;;;22.75;20.42;;;8.20;99.90;;;;;;4976155;28;20026;-78
2022/11/30 04:40:49;;;;;;;22.47;20.27;;;8.10;99.90;;;;;;4992354;28;20042;-79
2022/11/30 04:43:15;;;;;;;23.33;21.00;;;8.00;99.90;;;;;;5008942;28;20042;-78
2022/11/30 04:45:42;;;;;;;26.17;20.90;;;8.10;99.90;;;;;;5009603;28;20395;-78
2022/11/30 04:48:09;;;;;;;22.93;20.73;;;8.20;99.90;;;;;;4992199;28;20026;-78
2022/11/30 04:50:35;;;;;;;23.33;21.23;;;8.30;99.90;;;;;;5007372;28;20483;-78
2022/11/30 04:53:01;;;;;;;22.97;20.67;;;8.30;99.90;;;;;;4991883;28;20046;-79
2022/11/30 04:55:27;;;;;;;23.65;21.35;;;8.30;99.90;;;;;;4984458;28;20037;-78
2022/11/30 04:57:53;;;;;;;22.23;19.97;;;8.30;99.90;;;;;;5011649;28;20041;-79
2022/11/30 05:00:19;;;;;;;22.23;20.03;;;8.20;99.90;;;;;;4963029;28;20054;-78
2022/11/30 05:02:46;;;;;;;22.73;20.43;;;8.20;99.90;;;;;;4988148;28;20041;-79
2022/11/30 05:05:12;;;;;;;21.23;19.13;;;8.00;99.90;;;;;;4989108;28;20097;-78
2022/11/30 05:07:39;;;;;;;21.97;19.47;;;7.90;99.90;;;;;;4975582;28;20499;-78
2022/11/30 05:10:06;;;;;;;22.37;20.07;;;7.80;99.90;;;;;;4990011;28;20300;-78
2022/11/30 05:12:32;;;;;;;24.03;21.53;;;7.80;99.90;;;;;;5007832;28;20511;-79
2022/11/30 05:14:58;;;;;;;23.80;21.17;;;7.80;99.90;;;;;;5007026;28;20042;-79
2022/11/30 05:17:24;;;;;;;24.37;21.93;;;7.90;99.90;;;;;;5007514;28;20030;-78
2022/11/30 05:19:50;;;;;;;24.23;22.17;;;7.90;99.90;;;;;;4988955;28;20110;-79
2022/11/30 05:22:16;;;;;;;21.25;19.15;;;8.00;99.90;;;;;;4990591;28;20045;-78
2022/11/30 05:24:42;;;;;;;25.13;22.83;;;7.90;99.90;;;;;;4995249;28;20034;-78
2022/11/30 05:27:08;;;;;;;24.40;22.17;;;7.90;99.90;;;;;;4996635;28;20034;-78
2022/11/30 05:29:35;;;;;;;22.77;20.60;;;7.90;99.90;;;;;;4994168;28;20041;-78
2022/11/30 05:32:01;;;;;;;26.43;23.73;;;7.90;99.90;;;;;;4994401;28;20046;-79
2022/11/30 05:34:27;;;;;;;24.03;21.73;;;8.00;99.90;;;;;;4995344;28;20543;-78
2022/11/30 05:36:53;;;;;;;24.58;22.42;;;8.00;99.90;;;;;;4988928;28;20026;-79
2022/11/30 05:39:19;;;;;;;27.27;24.67;;;8.00;99.90;;;;;;4975312;28;20026;-78
2022/11/30 05:41:45;;;;;;;25.73;23.23;;;8.00;99.90;;;;;;5011708;28;20030;-78
2022/11/30 05:44:12;;;;;;;24.70;22.67;;;8.00;99.90;;;;;;4995879;28;20460;-80
2022/11/30 05:46:38;;;;;;;25.07;22.73;;;8.10;99.90;;;;;;5010433;28;20368;-79
2022/11/30 05:49:04;;;;;;;23.57;21.07;;;8.00;99.90;;;;;;4979590;28;20046;-79
2022/11/30 05:51:30;;;;;;;25.00;22.63;;;7.90;99.90;;;;;;4978064;28;20050;-79
2022/11/30 05:53:57;;;;;;;24.47;22.00;;;7.90;99.90;;;;;;4995987;28;20046;-79
2022/11/30 05:56:23;;;;;;;24.47;22.27;;;7.90;99.90;;;;;;5011842;28;20038;-79
2022/11/30 05:58:49;;;;;;;22.70;20.40;;;7.90;99.90;;;;;;4999537;28;20364;-79
2022/11/30 06:01:20;;;;;;;24.57;21.90;;;7.90;99.90;;;;;;4970538;28;20427;-78
2022/11/30 06:03:46;;;;;;;25.88;23.13;;;7.70;99.90;;;;;;4978958;28;20034;-79
2022/11/30 06:06:12;;;;;;;26.33;23.80;;;7.80;99.90;;;;;;4994219;28;20038;-79
2022/11/30 06:08:38;;;;;;;27.83;25.20;;;7.80;99.90;;;;;;4994239;28;20042;-78
2022/11/30 06:11:04;;;;;;;27.23;24.67;;;7.80;99.90;;;;;;4990753;28;20041;-78
2022/11/30 06:13:34;;;;;;;27.33;24.73;;;7.80;99.90;;;;;;4978204;28;20050;-78
2022/11/30 06:16:03;;;;;;;27.20;24.53;;;7.80;99.90;;;;;;4993468;28;20372;-78
2022/11/30 06:18:29;;;;;;;27.40;24.67;;;7.80;99.90;;;;;;4962930;28;20050;-78
2022/11/30 06:21:00;;;;;;;30.27;27.33;;;7.80;99.90;;;;;;4973796;28;20034;-78
2022/11/30 06:23:26;;;;;;;30.25;26.75;;;7.70;99.90;;;;;;5007427;28;20024;-78
2022/11/30 06:25:52;;;;;;;29.85;26.95;;;7.70;99.90;;;;;;5015305;28;20038;-78
2022/11/30 06:28:18;;;;;;;29.73;26.60;;;7.70;99.90;;;;;;4959619;28;20046;-78
2022/11/30 06:30:44;;;;;;;30.20;27.10;;;7.80;99.90;;;;;;4971687;28;20030;-79
2022/11/30 06:33:10;;;;;;;31.17;28.20;;;7.80;99.90;;;;;;5009668;28;20030;-80
2022/11/30 06:35:36;;;;;;;29.13;26.40;;;7.80;99.90;;;;;;4992923;28;20050;-79
2022/11/30 06:38:02;;;;;;;30.33;27.43;;;7.80;99.90;;;;;;4977720;28;20030;-78
2022/11/30 06:40:29;;;;;;;30.10;26.90;;;7.80;99.90;;;;;;4993316;28;20386;-78
2022/11/30 06:42:55;;;;;;;28.77;25.97;;;7.80;99.90;;;;;;4994143;28;20038;-78
2022/11/30 06:45:21;;;;;;;28.75;25.73;;;7.80;99.90;;;;;;5010055;28;20030;-79
2022/11/30 06:47:48;;;;;;;29.37;26.27;;;7.70;99.90;;;;;;4992893;28;20057;-79
2022/11/30 06:50:14;;;;;;;30.73;27.80;;;7.70;99.90;;;;;;5008700;28;20494;-79
2022/11/30 06:52:40;;;;;;;31.02;27.90;;;7.80;99.90;;;;;;4995033;28;20038;-78
2022/11/30 06:55:06;;;;;;;28.92;24.20;;;7.90;99.90;;;;;;5013648;28;20078;-78
2022/11/30 06:57:33;;;;;;;26.80;24.05;;;7.80;99.90;;;;;;5003095;28;20034;-78
2022/11/30 06:59:59;;;;;;;29.80;27.00;;;7.80;99.90;;;;;;4977050;28;20407;-79
2022/11/30 07:02:25;;;;;;;28.52;25.83;;;7.80;99.90;;;;;;5011950;28;20053;-79
2022/11/30 07:04:52;;;;;;;29.00;25.83;;;7.80;99.90;;;;;;4977515;28;20403;-79
2022/11/30 07:07:18;;;;;;;27.90;25.10;;;7.80;99.90;;;;;;4993063;28;20038;-79
2022/11/30 07:09:44;;;;;;;26.47;23.87;;;7.80;99.90;;;;;;4969552;28;20234;-79
2022/11/30 07:12:10;;;;;;;26.67;23.87;;;7.80;99.90;;;;;;5009636;28;20464;-79
2022/11/30 07:14:36;;;;;;;26.13;22.33;;;7.90;99.90;;;;;;5009376;28;20050;-79
2022/11/30 07:17:03;;;;;;;25.65;22.98;;;7.90;99.90;;;;;;4993563;28;20031;-79
2022/11/30 07:19:30;;;;;;;25.83;23.17;;;7.80;99.90;;;;;;4994060;28;20030;-78
2022/11/30 07:21:56;;;;;;;22.90;20.30;;;7.90;99.90;;;;;;5008491;28;20042;-79
2022/11/30 07:27:07;;;;;;;23.17;20.63;;;7.80;99.90;;;;;;4979847;28;20064;-79
2022/11/30 07:29:33;;;;;;;22.33;20.20;;;7.80;99.90;;;;;;4977220;28;20038;-79
2022/11/30 07:31:59;;;;;;;23.33;20.10;;;7.70;99.90;;;;;;4955624;28;20484;-79
2022/11/30 07:34:25;;;;;;;22.90;20.63;;;7.80;99.90;;;;;;4984194;28;20050;-79
2022/11/30 07:36:51;;;;;;;24.58;20.20;;;7.90;99.90;;;;;;4992969;28;20496;-79
2022/11/30 07:39:17;;;;;;;25.83;21.05;;;7.80;99.90;;;;;;5009094;28;20038;-78
2022/11/30 07:41:43;;;;;;;25.23;20.37;;;8.00;99.90;;;;;;4996092;28;20023;-80
2022/11/30 07:44:10;;;;;;;21.53;19.40;;;7.90;99.90;;;;;;5008565;28;20030;-79
2022/11/30 07:46:36;;;;;;;21.73;19.63;;;7.90;99.90;;;;;;4991787;28;20034;-79
2022/11/30 07:49:03;;;;;;;22.67;20.30;;;7.90;99.90;;;;;;5008938;28;20042;-79
2022/11/30 07:51:29;;;;;;;23.43;21.23;;;7.90;99.90;;;;;;4989251;28;20026;-80
2022/11/30 07:53:56;;;;;;;24.92;22.45;;;8.00;99.90;;;;;;4992068;28;20484;-79
2022/11/30 07:56:22;;;;;;;23.15;20.65;;;8.10;99.90;;;;;;4989666;28;20468;-79
2022/11/30 07:58:49;;;;;;;24.33;21.25;;;8.00;99.90;;;;;;5007117;28;20026;-79
2022/11/30 08:01:17;;;;;;;24.00;21.30;;;7.90;99.90;;;;;;4981331;28;20601;-79
2022/11/30 08:03:43;;;;;;;23.45;20.02;;;7.90;99.90;;;;;;4970149;28;20027;-79
2022/11/30 08:06:14;;;;;;;22.60;19.63;;;7.80;99.90;;;;;;4981726;28;20031;-79
2022/11/30 08:08:42;;;;;;;21.97;19.73;;;7.80;99.90;;;;;;4987776;28;20031;-79
2022/11/30 08:11:09;;;;;;;23.88;20.45;;;7.70;99.90;;;;;;4957813;28;20034;-78
2022/11/30 08:13:35;;;;;;;23.43;20.93;;;7.70;99.90;;;;;;4967012;28;20062;-79
2022/11/30 08:16:02;;;;;;;21.23;18.77;;;7.70;99.90;;;;;;4980671;28;20400;-79
2022/11/30 08:18:29;;;;;;;22.27;20.05;;;7.60;99.90;;;;;;5007864;28;20026;-78
2022/11/30 08:20:59;;;;;;;21.70;19.40;;;7.60;99.90;;;;;;5007916;28;20030;-78
2022/11/30 08:23:32;;;;;;;20.70;18.60;;;7.60;99.90;;;;;;5007289;28;20054;-78
2022/11/30 08:26:02;;;;;;;19.27;17.20;;;7.60;99.90;;;;;;4976386;28;20499;-78
2022/11/30 08:28:29;;;;;;;20.13;16.92;;;7.50;99.90;;;;;;4975312;28;20030;-78
2022/11/30 08:31:00;;;;;;;23.50;21.00;;;7.40;99.90;;;;;;4959551;28;20023;-82
2022/11/30 08:33:26;;;;;;;25.00;22.70;;;7.40;99.90;;;;;;4976250;28;20503;-79
2022/11/30 08:35:52;;;;;;;21.83;17.70;;;7.70;99.90;;;;;;4973628;28;20053;-79
2022/11/30 08:38:18;;;;;;;20.43;18.17;;;7.30;99.90;;;;;;4991645;28;20391;-78
2022/11/30 08:40:44;;;;;;;23.23;20.17;;;7.10;99.90;;;;;;4992257;28;20079;-79
2022/11/30 08:43:10;;;;;;;19.67;17.57;;;7.00;99.90;;;;;;5008361;28;20034;-78
2022/11/30 08:45:37;;;;;;;25.67;21.63;;;6.80;99.90;;;;;;5002503;28;20042;-78
2022/11/30 08:48:04;;;;;;;19.17;17.13;;;6.70;99.90;;;;;;4988712;28;20042;-78
2022/11/30 08:50:30;;;;;;;25.17;22.47;;;6.60;99.90;;;;;;4989212;28;20046;-77
2022/11/30 08:52:56;;;;;;;27.83;24.80;;;6.60;99.90;;;;;;5001801;28;20412;-78
2022/11/30 08:55:22;;;;;;;25.70;22.97;;;6.50;99.90;;;;;;4992089;28;20049;-78
2022/11/30 08:57:48;;;;;;;28.37;24.80;;;6.50;99.90;;;;;;4993180;28;20394;-80
2022/11/30 09:00:15;;;;;;;35.53;28.77;;;6.60;99.90;;;;;;4990551;28;20045;-80
2022/11/30 09:02:41;;;;;;;38.60;28.93;;;6.90;99.90;;;;;;5006914;28;20033;-78
2022/11/30 09:05:08;;;;;;;33.47;30.07;;;7.30;99.90;;;;;;4992293;28;20411;-78
2022/11/30 09:07:34;;;;;;;25.67;23.37;;;7.00;99.90;;;;;;4988754;28;20053;-78
2022/11/30 09:10:00;;;;;;;29.57;26.47;;;7.00;99.90;;;;;;5007229;28;20046;-78
2022/11/30 09:12:26;;;;;;;20.03;18.00;;;6.90;99.90;;;;;;4992603;28;20385;-78
2022/11/30 09:14:52;;;;;;;27.43;19.63;;;6.80;99.90;;;;;;4990432;28;20034;-78
2022/11/30 09:17:18;;;;;;;21.07;19.27;;;6.60;99.90;;;;;;5001174;28;20375;-78
2022/11/30 09:19:44;;;;;;;29.17;26.07;;;6.40;99.90;;;;;;4975364;28;20045;-78
2022/11/30 09:22:10;;;;;;;23.33;21.17;;;6.40;99.90;;;;;;4992409;28;20033;-79
2022/11/30 09:24:37;;;;;;;35.17;23.83;;;6.40;99.90;;;;;;4975484;28;20491;-78
2022/11/30 09:27:03;;;;;;;23.97;21.43;;;6.30;99.90;;;;;;4977036;28;20042;-78
2022/11/30 09:29:29;;;;;;;24.87;22.33;;;6.30;99.90;;;;;;4977652;28;20412;-79
2022/11/30 09:31:55;;;;;;;26.90;24.00;;;6.20;99.90;;;;;;5005375;28;20042;-79
2022/11/30 09:34:21;;;;;;;25.20;22.83;;;6.20;99.90;;;;;;4966223;28;20058;-78
2022/11/30 09:36:47;;;;;;;26.37;23.63;;;6.20;99.90;;;;;;4989410;28;20042;-79
2022/11/30 09:39:13;;;;;;;22.80;20.80;;;6.40;99.90;;;;;;5007784;28;20464;-78
2022/11/30 09:41:45;;;;;;;24.53;21.90;;;6.30;99.90;;;;;;4986941;28;20045;-78
2022/11/30 09:44:42;;;;;;;38.30;19.47;;;6.10;99.90;;;;;;4984601;28;20049;-78
2022/11/30 09:47:32;;;;;;;29.10;21.43;;;5.90;99.90;;;;;;4983437;28;20030;-78
2022/11/30 09:50:15;;;;;;;21.93;19.87;;;5.90;99.90;;;;;;4971690;28;20484;-78
2022/11/30 09:52:44;;;;;;;21.67;19.97;;;5.90;99.90;;;;;;5012125;28;20512;-78
2022/11/30 09:55:16;;;;;;;23.07;20.37;;;5.90;99.90;;;;;;4985193;28;20050;-79
2022/11/30 09:57:44;;;;;;;88.83;25.07;;;5.80;99.90;;;;;;5006126;28;20464;-80
2022/11/30 10:00:14;;;;;;;20.13;18.17;;;5.80;99.90;;;;;;4990923;28;20381;-80
2022/11/30 10:02:40;;;;;;;24.58;22.35;;;5.90;99.90;;;;;;4989083;28;20502;-79
2022/11/30 10:05:14;;;;;;;24.57;22.77;;;5.80;99.90;;;;;;5006514;28;20384;-79
2022/11/30 10:07:43;;;;;;;22.13;20.23;;;5.80;99.90;;;;;;4984524;28;20030;-80
2022/11/30 10:10:33;;;;;;;23.67;21.67;;;5.80;99.90;;;;;;4988606;28;20034;-79
2022/11/30 10:13:14;;;;;;;28.17;21.25;;;5.80;99.90;;;;;;4978785;28;20379;-78
2022/11/30 10:16:01;;;;;;;21.77;19.58;;;5.80;99.90;;;;;;4976008;28;20054;-79
2022/11/30 10:18:45;;;;;;;26.40;23.70;;;5.80;99.90;;;;;;4992763;28;20053;-80
2022/11/30 10:21:20;;;;;;;28.10;25.30;;;5.90;99.90;;;;;;4991516;28;20518;-79
2022/11/30 10:23:46;;;;;;;28.30;25.27;;;5.90;99.90;;;;;;4994063;28;20046;-79
2022/11/30 10:26:16;;;;;;;30.93;27.43;;;5.90;99.90;;;;;;4994976;28;20050;-80
2022/11/30 10:28:49;;;;;;;30.47;27.20;;;6.00;99.90;;;;;;5001366;28;20093;-77
2022/11/30 10:31:16;;;;;;;40.10;29.53;;;6.10;99.90;;;;;;4969872;28;20506;-76
2022/11/30 10:33:51;;;;;;;32.30;28.90;;;6.10;99.90;;;;;;5005400;28;20038;-78
2022/11/30 10:36:33;;;;;;;32.17;28.27;;;6.30;99.90;;;;;;4972762;28;20067;-79
2022/11/30 10:39:20;;;;;;;30.17;27.17;;;6.30;99.90;;;;;;5007781;28;20030;-80
2022/11/30 10:41:51;;;;;;;23.10;20.70;;;6.40;99.90;;;;;;4974269;28;20487;-80
2022/11/30 10:44:21;;;;;;;27.02;24.30;;;6.40;99.90;;;;;;5006916;28;20034;-81
2022/11/30 10:46:56;;;;;;;24.63;22.00;;;6.50;99.90;;;;;;5009517;28;20045;-80
2022/11/30 10:49:22;;;;;;;26.43;23.80;;;6.50;99.90;;;;;;5004908;28;20408;-80
2022/11/30 10:51:51;;;;;;;27.03;24.53;;;6.50;99.90;;;;;;5002366;28;20045;-80
2022/11/30 10:54:20;;;;;;;21.37;19.23;;;6.70;99.90;;;;;;4996517;28;20057;-81
2022/11/30 10:56:47;;;;;;;16.13;14.67;;;6.70;99.90;;;;;;5012471;28;20034;-79
2022/11/30 10:59:18;;;;;;;20.67;18.47;;;6.70;99.90;;;;;;4989295;28;20037;-77
2022/11/30 11:01:44;;;;;;;21.60;19.10;;;6.80;99.90;;;;;;5008694;28;20037;-79
2022/11/30 11:04:21;;;;;;;21.10;18.83;;;6.80;99.90;;;;;;4977244;28;20361;-79
2022/11/30 11:06:53;;;;;;;21.57;19.30;;;6.90;99.90;;;;;;4977576;28;20041;-79
2022/11/30 11:09:28;;;;;;;23.43;19.00;;;7.10;99.90;;;;;;4993697;28;20029;-79
2022/11/30 11:11:57;;;;;;;18.67;16.77;;;7.10;99.90;;;;;;4994850;28;20026;-78
2022/11/30 11:14:23;;;;;;;20.63;17.87;;;7.20;99.90;;;;;;4999746;28;20419;-78
2022/11/30 11:16:58;;;;;;;20.27;18.27;;;7.10;99.90;;;;;;4991994;28;20026;-79
2022/11/30 11:19:38;;;;;;;18.70;16.93;;;7.10;99.90;;;;;;5012160;28;20491;-79
2022/11/30 11:22:17;;;;;;;20.47;18.57;;;7.20;99.90;;;;;;4993187;28;20046;-79
2022/11/30 11:24:43;;;;;;;19.47;17.47;;;7.20;99.90;;;;;;5025196;28;20057;-79
2022/11/30 11:27:23;;;;;;;20.87;18.70;;;7.30;99.90;;;;;;4953029;28;20065;-79
2022/11/30 11:30:17;;;;;;;20.40;18.33;;;7.30;99.90;;;;;;4981586;28;20502;-79
2022/11/30 11:33:11;;;;;;;23.97;19.90;;;7.30;99.90;;;;;;5005017;28;20046;-79
2022/11/30 11:35:51;;;;;;;21.00;19.00;;;7.40;99.90;;;;;;5002459;28;20046;-79
2022/11/30 11:38:20;;;;;;;21.47;19.40;;;7.50;99.90;;;;;;5020960;28;20091;-79
2022/11/30 11:41:06;;;;;;;21.37;19.17;;;7.50;99.90;;;;;;4989019;28;20029;-79
2022/11/30 11:43:33;;;;;;;19.70;17.73;;;7.70;99.90;;;;;;4960413;28;20053;-79
2022/11/30 11:46:13;;;;;;;20.17;18.13;;;7.80;99.90;;;;;;4986675;28;20038;-79
2022/11/30 11:48:55;;;;;;;19.23;17.33;;;8.00;99.90;;;;;;5008993;28;20509;-79
2022/11/30 11:51:32;;;;;;;19.73;17.83;;;8.00;99.90;;;;;;4992689;28;20057;-79
2022/11/30 11:54:01;;;;;;;19.25;17.25;;;8.10;99.90;;;;;;5008569;28;20045;-79
2022/11/30 11:56:30;;;;;;;18.50;16.77;;;8.20;99.90;;;;;;5007710;28;20384;-79
2022/11/30 11:59:12;;;;;;;20.05;17.95;;;8.10;99.90;;;;;;5005174;28;20361;-79
2022/11/30 12:01:47;;;;;;;18.63;16.87;;;8.10;99.90;;;;;;4991562;28;20045;-79
2022/11/30 12:04:22;;;;;;;20.53;18.47;;;8.00;99.90;;;;;;4992830;28;20037;-79
2022/11/30 12:06:50;;;;;;;19.87;17.87;;;8.00;99.90;;;;;;4990593;28;20038;-79
2022/11/30 12:09:20;;;;;;;21.40;19.20;;;8.00;99.90;;;;;;5008447;28;20050;-79
2022/11/30 12:11:46;;;;;;;21.10;19.02;;;8.10;99.90;;;;;;4991610;28;20045;-78
2022/11/30 12:14:16;;;;;;;20.17;18.23;;;8.20;99.90;;;;;;4975107;28;20479;-79
2022/11/30 12:17:04;;;;;;;20.55;18.65;;;8.20;99.90;;;;;;4990326;28;20046;-78
2022/11/30 12:19:43;;;;;;;20.47;18.37;;;8.20;99.90;;;;;;5004023;28;20049;-79
2022/11/30 12:22:24;;;;;;;22.20;19.83;;;8.30;99.90;;;;;;4990975;28;20494;-79
2022/11/30 12:25:27;;;;;;;22.13;19.92;;;8.40;99.90;;;;;;4994558;28;20046;-79
2022/11/30 12:28:24;;;;;;;20.15;18.08;;;8.60;99.90;;;;;;5001671;28;20043;-79
2022/11/30 12:30:53;;;;;;;21.50;19.35;;;8.70;99.90;;;;;;5010271;28;20502;-80
2022/11/30 12:33:27;;;;;;;21.00;18.80;;;8.60;99.90;;;;;;4991847;28;20033;-79
2022/11/30 12:36:09;;;;;;;18.40;16.50;;;8.50;99.90;;;;;;5010764;28;20055;-79
2022/11/30 12:38:52;;;;;;;22.95;20.50;;;8.40;99.90;;;;;;4977725;28;20045;-79
2022/11/30 12:41:30;;;;;;;23.63;21.23;;;8.40;99.90;;;;;;4974969;28;20405;-79
2022/11/30 12:44:21;;;;;;;19.98;18.00;;;8.40;99.90;;;;;;5006246;28;20026;-78
2022/11/30 12:47:15;;;;;;;22.17;19.92;;;8.50;99.90;;;;;;4990715;28;20042;-79
2022/11/30 12:50:16;;;;;;;20.93;19.13;;;8.50;99.90;;;;;;4957809;28;20042;-79